sensor_id;sensor_type;location;lat;lon;timestamp;pressure;altitude;pressure_sealevel;temperature;humidity
75298;BME280;63896;45.990;18.688;2024-03-07T00:02:21;100608.75;;;7.98;100.00
75298;BME280;63896;45.990;18.688;2024-03-07T00:05:26;100603.19;;;7.86;100.00
75298;BME280;63896;45.990;18.688;2024-03-07T00:08:29;100598.47;;;7.82;100.00
75298;BME280;63896;45.990;18.688;2024-03-07T00:11:33;100601.78;;;7.90;100.00
75298;BME280;63896;45.990;18.688;2024-03-07T00:14:37;100599.97;;;7.91;100.00
75298;BME280;63896;45.990;18.688;2024-03-07T00:17:40;100605.00;;;7.86;100.00
75298;BME280;63896;45.990;18.688;2024-03-07T00:20:43;100607.34;;;7.74;100.00
75298;BME280;63896;45.990;18.688;2024-03-07T00:23:46;100606.25;;;7.68;100.00
75298;BME280;63896;45.990;18.688;2024-03-07T00:26:51;100609.72;;;7.69;100.00
75298;BME280;63896;45.990;18.688;2024-03-07T00:29:54;100610.16;;;7.73;100.00
75298;BME280;63896;45.990;18.688;2024-03-07T00:32:57;100599.81;;;7.71;100.00
75298;BME280;63896;45.990;18.688;2024-03-07T00:36:00;100601.44;;;7.72;100.00
75298;BME280;63896;45.990;18.688;2024-03-07T00:39:03;100596.34;;;7.71;100.00
75298;BME280;63896;45.990;18.688;2024-03-07T00:42:07;100598.59;;;7.74;100.00
75298;BME280;63896;45.990;18.688;2024-03-07T00:45:10;100598.16;;;7.70;100.00
75298;BME280;63896;45.990;18.688;2024-03-07T00:48:12;100599.28;;;7.82;100.00
75298;BME280;63896;45.990;18.688;2024-03-07T00:51:15;100590.38;;;7.83;100.00
75298;BME280;63896;45.990;18.688;2024-03-07T00:54:18;100596.25;;;7.85;100.00
75298;BME280;63896;45.990;18.688;2024-03-07T00:57:21;100589.59;;;7.89;100.00
75298;BME280;63896;45.990;18.688;2024-03-07T01:00:24;100589.53;;;7.83;100.00
75298;BME280;63896;45.990;18.688;2024-03-07T01:03:27;100584.25;;;7.83;100.00
75298;BME280;63896;45.990;18.688;2024-03-07T01:06:30;100595.25;;;7.86;100.00
75298;BME280;63896;45.990;18.688;2024-03-07T01:09:33;100601.28;;;7.80;100.00
75298;BME280;63896;45.990;18.688;2024-03-07T01:12:38;100590.09;;;7.78;100.00
75298;BME280;63896;45.990;18.688;2024-03-07T01:15:41;100587.47;;;7.78;100.00
75298;BME280;63896;45.990;18.688;2024-03-07T01:18:43;100598.22;;;7.77;100.00
75298;BME280;63896;45.990;18.688;2024-03-07T01:21:46;100593.53;;;7.72;100.00
75298;BME280;63896;45.990;18.688;2024-03-07T01:24:49;100586.03;;;7.76;100.00
75298;BME280;63896;45.990;18.688;2024-03-07T01:27:53;100581.31;;;7.71;100.00
75298;BME280;63896;45.990;18.688;2024-03-07T01:30:57;100585.00;;;7.77;100.00
75298;BME280;63896;45.990;18.688;2024-03-07T01:34:00;100593.13;;;7.75;100.00
75298;BME280;63896;45.990;18.688;2024-03-07T01:37:03;100584.53;;;7.66;100.00
75298;BME280;63896;45.990;18.688;2024-03-07T01:40:10;100593.66;;;7.64;100.00
75298;BME280;63896;45.990;18.688;2024-03-07T01:43:13;100589.38;;;7.63;100.00
75298;BME280;63896;45.990;18.688;2024-03-07T01:46:16;100588.69;;;7.54;100.00
75298;BME280;63896;45.990;18.688;2024-03-07T01:49:19;100589.06;;;7.51;100.00
75298;BME280;63896;45.990;18.688;2024-03-07T01:52:22;100597.59;;;7.53;100.00
75298;BME280;63896;45.990;18.688;2024-03-07T01:55:27;100596.97;;;7.51;100.00
75298;BME280;63896;45.990;18.688;2024-03-07T01:58:30;100589.19;;;7.43;100.00
75298;BME280;63896;45.990;18.688;2024-03-07T02:01:34;100592.38;;;7.39;100.00
75298;BME280;63896;45.990;18.688;2024-03-07T02:04:39;100583.84;;;7.37;100.00
75298;BME280;63896;45.990;18.688;2024-03-07T02:07:43;100588.59;;;7.27;100.00
75298;BME280;63896;45.990;18.688;2024-03-07T02:10:46;100593.16;;;7.33;100.00
75298;BME280;63896;45.990;18.688;2024-03-07T02:13:49;100599.38;;;7.25;100.00
75298;BME280;63896;45.990;18.688;2024-03-07T02:16:52;100591.13;;;7.13;100.00
75298;BME280;63896;45.990;18.688;2024-03-07T02:19:55;100595.84;;;7.18;100.00
75298;BME280;63896;45.990;18.688;2024-03-07T02:22:58;100592.88;;;7.06;100.00
75298;BME280;63896;45.990;18.688;2024-03-07T02:26:01;100597.63;;;6.96;100.00
75298;BME280;63896;45.990;18.688;2024-03-07T02:29:04;100588.63;;;6.91;100.00
75298;BME280;63896;45.990;18.688;2024-03-07T02:32:06;100593.53;;;6.94;100.00
75298;BME280;63896;45.990;18.688;2024-03-07T02:35:09;100593.09;;;6.90;100.00
75298;BME280;63896;45.990;18.688;2024-03-07T02:38:12;100593.81;;;6.84;100.00
75298;BME280;63896;45.990;18.688;2024-03-07T02:41:15;100592.31;;;6.75;100.00
75298;BME280;63896;45.990;18.688;2024-03-07T02:44:18;100600.91;;;6.84;100.00
75298;BME280;63896;45.990;18.688;2024-03-07T02:47:22;100600.84;;;6.77;100.00
75298;BME280;63896;45.990;18.688;2024-03-07T02:50:26;100610.38;;;6.78;100.00
75298;BME280;63896;45.990;18.688;2024-03-07T02:53:29;100605.66;;;6.74;100.00
75298;BME280;63896;45.990;18.688;2024-03-07T02:56:32;100604.38;;;6.69;100.00
75298;BME280;63896;45.990;18.688;2024-03-07T02:59:35;100607.41;;;6.66;100.00
75298;BME280;63896;45.990;18.688;2024-03-07T03:02:39;100614.88;;;6.63;100.00
75298;BME280;63896;45.990;18.688;2024-03-07T03:05:42;100609.69;;;6.55;100.00
75298;BME280;63896;45.990;18.688;2024-03-07T03:08:45;100608.75;;;6.62;100.00
75298;BME280;63896;45.990;18.688;2024-03-07T03:11:48;100614.03;;;6.62;100.00
75298;BME280;63896;45.990;18.688;2024-03-07T03:14:51;100606.13;;;6.62;100.00
75298;BME280;63896;45.990;18.688;2024-03-07T03:17:55;100605.22;;;6.55;100.00
75298;BME280;63896;45.990;18.688;2024-03-07T03:21:03;100603.41;;;6.56;100.00
75298;BME280;63896;45.990;18.688;2024-03-07T03:24:06;100610.66;;;6.54;100.00
75298;BME280;63896;45.990;18.688;2024-03-07T03:27:10;100615.56;;;6.57;100.00
75298;BME280;63896;45.990;18.688;2024-03-07T03:30:13;100617.75;;;6.53;100.00
75298;BME280;63896;45.990;18.688;2024-03-07T03:33:17;100614.94;;;6.55;100.00
75298;BME280;63896;45.990;18.688;2024-03-07T03:36:20;100614.50;;;6.51;100.00
75298;BME280;63896;45.990;18.688;2024-03-07T03:39:23;100612.50;;;6.53;100.00
75298;BME280;63896;45.990;18.688;2024-03-07T03:42:26;100610.88;;;6.52;100.00
75298;BME280;63896;45.990;18.688;2024-03-07T03:45:29;100615.31;;;6.52;100.00
75298;BME280;63896;45.990;18.688;2024-03-07T03:48:33;100611.88;;;6.37;100.00
75298;BME280;63896;45.990;18.688;2024-03-07T03:51:36;100606.22;;;6.40;100.00
75298;BME280;63896;45.990;18.688;2024-03-07T03:54:39;100611.03;;;6.36;100.00
75298;BME280;63896;45.990;18.688;2024-03-07T03:57:43;100611.88;;;6.37;100.00
75298;BME280;63896;45.990;18.688;2024-03-07T04:00:46;100612.94;;;6.28;100.00
75298;BME280;63896;45.990;18.688;2024-03-07T04:03:48;100616.94;;;6.23;100.00
75298;BME280;63896;45.990;18.688;2024-03-07T04:06:51;100626.75;;;6.30;100.00
75298;BME280;63896;45.990;18.688;2024-03-07T04:09:54;100623.84;;;6.25;100.00
75298;BME280;63896;45.990;18.688;2024-03-07T04:12:57;100615.75;;;6.26;100.00
75298;BME280;63896;45.990;18.688;2024-03-07T04:16:01;100627.75;;;6.29;100.00
75298;BME280;63896;45.990;18.688;2024-03-07T04:19:04;100624.94;;;6.30;100.00
75298;BME280;63896;45.990;18.688;2024-03-07T04:22:08;100628.84;;;6.19;100.00
75298;BME280;63896;45.990;18.688;2024-03-07T04:25:11;100624.91;;;6.15;100.00
75298;BME280;63896;45.990;18.688;2024-03-07T04:28:14;100626.84;;;6.21;100.00
75298;BME280;63896;45.990;18.688;2024-03-07T04:31:17;100632.75;;;6.23;100.00
75298;BME280;63896;45.990;18.688;2024-03-07T04:34:20;100630.47;;;6.20;100.00
75298;BME280;63896;45.990;18.688;2024-03-07T04:37:23;100629.66;;;6.20;100.00
75298;BME280;63896;45.990;18.688;2024-03-07T04:40:26;100631.84;;;6.16;100.00
75298;BME280;63896;45.990;18.688;2024-03-07T04:43:29;100639.72;;;6.16;100.00
75298;BME280;63896;45.990;18.688;2024-03-07T04:46:32;100639.19;;;6.21;100.00
75298;BME280;63896;45.990;18.688;2024-03-07T04:49:35;100635.53;;;6.22;100.00
75298;BME280;63896;45.990;18.688;2024-03-07T04:52:38;100642.66;;;6.21;100.00
75298;BME280;63896;45.990;18.688;2024-03-07T04:55:41;100640.81;;;6.22;100.00
75298;BME280;63896;45.990;18.688;2024-03-07T04:58:44;100641.38;;;6.17;100.00
75298;BME280;63896;45.990;18.688;2024-03-07T05:01:48;100641.00;;;6.20;100.00
75298;BME280;63896;45.990;18.688;2024-03-07T05:04:52;100641.63;;;6.22;100.00
75298;BME280;63896;45.990;18.688;2024-03-07T05:07:55;100643.13;;;6.25;100.00
75298;BME280;63896;45.990;18.688;2024-03-07T05:11:00;100643.91;;;6.26;100.00
75298;BME280;63896;45.990;18.688;2024-03-07T05:14:03;100645.84;;;6.32;100.00
75298;BME280;63896;45.990;18.688;2024-03-07T05:17:06;100653.75;;;6.32;100.00
75298;BME280;63896;45.990;18.688;2024-03-07T05:20:11;100652.91;;;6.31;100.00
75298;BME280;63896;45.990;18.688;2024-03-07T05:23:17;100652.91;;;6.31;100.00
75298;BME280;63896;45.990;18.688;2024-03-07T05:26:20;100657.72;;;6.28;100.00
75298;BME280;63896;45.990;18.688;2024-03-07T05:29:23;100661.28;;;6.35;100.00
75298;BME280;63896;45.990;18.688;2024-03-07T05:32:26;100666.84;;;6.40;100.00
75298;BME280;63896;45.990;18.688;2024-03-07T05:35:30;100662.19;;;6.42;100.00
75298;BME280;63896;45.990;18.688;2024-03-07T05:38:33;100669.56;;;6.32;100.00
75298;BME280;63896;45.990;18.688;2024-03-07T05:41:39;100669.72;;;6.30;100.00
75298;BME280;63896;45.990;18.688;2024-03-07T05:44:43;100667.75;;;6.32;100.00
75298;BME280;63896;45.990;18.688;2024-03-07T05:47:46;100670.75;;;6.29;100.00
75298;BME280;63896;45.990;18.688;2024-03-07T05:50:50;100679.94;;;6.33;100.00
75298;BME280;63896;45.990;18.688;2024-03-07T05:53:54;100682.06;;;6.30;100.00
75298;BME280;63896;45.990;18.688;2024-03-07T05:56:57;100684.25;;;6.26;100.00
75298;BME280;63896;45.990;18.688;2024-03-07T06:00:00;100693.97;;;6.26;100.00
75298;BME280;63896;45.990;18.688;2024-03-07T06:03:13;100690.28;;;6.35;100.00
75298;BME280;63896;45.990;18.688;2024-03-07T06:06:18;100688.00;;;6.32;100.00
75298;BME280;63896;45.990;18.688;2024-03-07T06:09:24;100687.63;;;6.35;100.00
75298;BME280;63896;45.990;18.688;2024-03-07T06:12:27;100678.97;;;6.26;100.00
75298;BME280;63896;45.990;18.688;2024-03-07T06:15:30;100688.47;;;6.35;100.00
75298;BME280;63896;45.990;18.688;2024-03-07T06:18:33;100695.72;;;6.33;100.00
75298;BME280;63896;45.990;18.688;2024-03-07T06:21:38;100689.56;;;6.41;100.00
75298;BME280;63896;45.990;18.688;2024-03-07T06:24:44;100697.84;;;6.52;100.00
75298;BME280;63896;45.990;18.688;2024-03-07T06:27:47;100697.03;;;6.52;100.00
75298;BME280;63896;45.990;18.688;2024-03-07T06:30:51;100705.47;;;6.47;100.00
75298;BME280;63896;45.990;18.688;2024-03-07T06:33:54;100707.75;;;6.50;100.00
75298;BME280;63896;45.990;18.688;2024-03-07T06:36:57;100711.66;;;6.69;100.00
75298;BME280;63896;45.990;18.688;2024-03-07T06:40:01;100714.97;;;6.71;100.00
75298;BME280;63896;45.990;18.688;2024-03-07T06:43:09;100718.66;;;6.77;100.00
75298;BME280;63896;45.990;18.688;2024-03-07T06:46:18;100711.41;;;6.79;100.00
75298;BME280;63896;45.990;18.688;2024-03-07T06:49:27;100717.44;;;6.87;100.00
75298;BME280;63896;45.990;18.688;2024-03-07T06:52:31;100719.41;;;6.85;100.00
75298;BME280;63896;45.990;18.688;2024-03-07T06:55:34;100719.94;;;6.95;100.00
75298;BME280;63896;45.990;18.688;2024-03-07T06:58:37;100723.88;;;7.14;100.00
75298;BME280;63896;45.990;18.688;2024-03-07T07:01:39;100720.78;;;7.10;100.00
75298;BME280;63896;45.990;18.688;2024-03-07T07:05:10;100719.88;;;7.18;100.00
75298;BME280;63896;45.990;18.688;2024-03-07T07:09:54;100721.78;;;7.45;100.00
75298;BME280;63896;45.990;18.688;2024-03-07T07:12:58;100717.81;;;7.71;100.00
75298;BME280;63896;45.990;18.688;2024-03-07T07:16:01;100731.31;;;7.61;100.00
75298;BME280;63896;45.990;18.688;2024-03-07T07:19:05;100725.19;;;7.75;100.00
75298;BME280;63896;45.990;18.688;2024-03-07T07:22:11;100734.94;;;7.96;100.00
75298;BME280;63896;45.990;18.688;2024-03-07T07:25:14;100733.81;;;8.05;100.00
75298;BME280;63896;45.990;18.688;2024-03-07T07:28:18;100738.94;;;7.92;100.00
75298;BME280;63896;45.990;18.688;2024-03-07T07:31:42;100741.56;;;8.06;100.00
75298;BME280;63896;45.990;18.688;2024-03-07T07:40:14;100752.00;;;8.14;100.00
75298;BME280;63896;45.990;18.688;2024-03-07T07:44:20;100752.41;;;8.60;100.00
75298;BME280;63896;45.990;18.688;2024-03-07T07:47:24;100758.97;;;8.43;100.00
75298;BME280;63896;45.990;18.688;2024-03-07T07:50:28;100752.78;;;8.85;100.00
75298;BME280;63896;45.990;18.688;2024-03-07T07:53:31;100755.56;;;9.46;100.00
75298;BME280;63896;45.990;18.688;2024-03-07T07:56:35;100754.59;;;9.19;100.00
75298;BME280;63896;45.990;18.688;2024-03-07T07:59:38;100753.03;;;8.90;100.00
75298;BME280;63896;45.990;18.688;2024-03-07T08:02:41;100753.69;;;8.99;100.00
75298;BME280;63896;45.990;18.688;2024-03-07T08:05:46;100762.06;;;9.02;100.00
75298;BME280;63896;45.990;18.688;2024-03-07T08:08:49;100764.06;;;9.00;100.00
75298;BME280;63896;45.990;18.688;2024-03-07T08:11:52;100759.88;;;9.13;100.00
75298;BME280;63896;45.990;18.688;2024-03-07T08:14:57;100766.44;;;9.23;100.00
75298;BME280;63896;45.990;18.688;2024-03-07T08:18:00;100769.97;;;9.97;100.00
75298;BME280;63896;45.990;18.688;2024-03-07T08:21:04;100771.72;;;9.71;100.00
75298;BME280;63896;45.990;18.688;2024-03-07T08:24:07;100764.16;;;10.35;100.00
75298;BME280;63896;45.990;18.688;2024-03-07T08:27:13;100767.78;;;10.14;100.00
75298;BME280;63896;45.990;18.688;2024-03-07T08:30:17;100778.53;;;9.93;100.00
75298;BME280;63896;45.990;18.688;2024-03-07T08:33:20;100778.09;;;9.89;100.00
75298;BME280;63896;45.990;18.688;2024-03-07T08:36:25;100780.25;;;10.20;100.00
75298;BME280;63896;45.990;18.688;2024-03-07T08:39:30;100777.41;;;10.15;100.00
75298;BME280;63896;45.990;18.688;2024-03-07T08:42:33;100777.00;;;10.51;100.00
75298;BME280;63896;45.990;18.688;2024-03-07T08:45:37;100784.69;;;10.07;100.00
75298;BME280;63896;45.990;18.688;2024-03-07T08:48:40;100785.56;;;10.60;100.00
75298;BME280;63896;45.990;18.688;2024-03-07T08:51:43;100788.22;;;10.46;100.00
75298;BME280;63896;45.990;18.688;2024-03-07T08:54:49;100780.25;;;10.20;100.00
75298;BME280;63896;45.990;18.688;2024-03-07T08:57:52;100783.75;;;10.60;100.00
75298;BME280;63896;45.990;18.688;2024-03-07T09:00:55;100791.88;;;10.98;100.00
75298;BME280;63896;45.990;18.688;2024-03-07T09:04:05;100782.09;;;10.79;100.00
75298;BME280;63896;45.990;18.688;2024-03-07T09:07:49;100787.59;;;10.31;100.00
75298;BME280;63896;45.990;18.688;2024-03-07T09:10:52;100794.97;;;10.56;100.00
75298;BME280;63896;45.990;18.688;2024-03-07T09:13:58;100792.72;;;10.79;100.00
75298;BME280;63896;45.990;18.688;2024-03-07T09:17:01;100791.72;;;10.73;100.00
75298;BME280;63896;45.990;18.688;2024-03-07T09:20:05;100802.72;;;10.70;100.00
75298;BME280;63896;45.990;18.688;2024-03-07T09:23:12;100806.72;;;10.07;100.00
75298;BME280;63896;45.990;18.688;2024-03-07T09:26:15;100803.47;;;10.12;100.00
75298;BME280;63896;45.990;18.688;2024-03-07T09:29:19;100806.97;;;10.32;100.00
75298;BME280;63896;45.990;18.688;2024-03-07T09:32:22;100804.53;;;10.37;100.00
75298;BME280;63896;45.990;18.688;2024-03-07T09:35:27;100804.97;;;10.40;100.00
75298;BME280;63896;45.990;18.688;2024-03-07T09:38:30;100804.97;;;10.80;100.00
75298;BME280;63896;45.990;18.688;2024-03-07T09:41:34;100816.19;;;10.82;100.00
75298;BME280;63896;45.990;18.688;2024-03-07T09:44:38;100820.00;;;11.25;100.00
75298;BME280;63896;45.990;18.688;2024-03-07T09:47:45;100824.16;;;11.08;100.00
75298;BME280;63896;45.990;18.688;2024-03-07T09:50:52;100818.28;;;11.57;100.00
75298;BME280;63896;45.990;18.688;2024-03-07T09:53:56;100814.31;;;11.86;100.00
75298;BME280;63896;45.990;18.688;2024-03-07T09:57:05;100816.03;;;12.43;93.31
75298;BME280;63896;45.990;18.688;2024-03-07T10:00:10;100828.03;;;12.21;95.40
75298;BME280;63896;45.990;18.688;2024-03-07T10:03:21;100815.69;;;12.33;92.25
75298;BME280;63896;45.990;18.688;2024-03-07T10:06:26;100821.75;;;12.40;85.50
75298;BME280;63896;45.990;18.688;2024-03-07T10:09:31;100813.47;;;12.79;78.24
75298;BME280;63896;45.990;18.688;2024-03-07T10:12:39;100823.84;;;12.87;84.22
75298;BME280;63896;45.990;18.688;2024-03-07T10:15:42;100827.44;;;11.74;85.19
75298;BME280;63896;45.990;18.688;2024-03-07T10:18:46;100834.38;;;11.82;93.43
75298;BME280;63896;45.990;18.688;2024-03-07T10:21:49;100826.66;;;11.74;86.87
75298;BME280;63896;45.990;18.688;2024-03-07T10:24:56;100830.53;;;13.76;71.90
75298;BME280;63896;45.990;18.688;2024-03-07T10:28:02;100834.25;;;13.20;75.18
75298;BME280;63896;45.990;18.688;2024-03-07T10:31:10;100833.28;;;13.69;70.24
75298;BME280;63896;45.990;18.688;2024-03-07T10:34:14;100839.59;;;13.57;73.87
75298;BME280;63896;45.990;18.688;2024-03-07T10:37:18;100850.94;;;12.22;90.62
75298;BME280;63896;45.990;18.688;2024-03-07T10:40:26;100846.50;;;12.09;82.00
75298;BME280;63896;45.990;18.688;2024-03-07T10:43:31;100847.53;;;12.15;88.27
75298;BME280;63896;45.990;18.688;2024-03-07T10:46:37;100838.81;;;13.13;83.34
75298;BME280;63896;45.990;18.688;2024-03-07T10:49:59;100847.50;;;13.45;79.43
75298;BME280;63896;45.990;18.688;2024-03-07T10:53:38;100847.13;;;13.60;71.92
75298;BME280;63896;45.990;18.688;2024-03-07T10:57:40;100838.75;;;13.20;76.51
75298;BME280;63896;45.990;18.688;2024-03-07T11:00:35;100838.69;;;12.52;85.27
75298;BME280;63896;45.990;18.688;2024-03-07T11:03:40;100835.25;;;12.95;76.31
75298;BME280;63896;45.990;18.688;2024-03-07T11:06:45;100842.63;;;12.05;81.48
75298;BME280;63896;45.990;18.688;2024-03-07T11:09:51;100838.59;;;12.34;82.31
75298;BME280;63896;45.990;18.688;2024-03-07T11:12:55;100838.41;;;12.60;78.56
75298;BME280;63896;45.990;18.688;2024-03-07T11:15:58;100834.47;;;12.69;76.71
75298;BME280;63896;45.990;18.688;2024-03-07T11:19:25;100830.94;;;12.44;80.13
75298;BME280;63896;45.990;18.688;2024-03-07T11:22:32;100829.47;;;13.04;77.90
75298;BME280;63896;45.990;18.688;2024-03-07T11:25:36;100837.00;;;12.58;77.70
75298;BME280;63896;45.990;18.688;2024-03-07T11:28:42;100837.72;;;12.71;81.15
75298;BME280;63896;45.990;18.688;2024-03-07T11:31:45;100832.38;;;12.71;76.42
75298;BME280;63896;45.990;18.688;2024-03-07T11:34:48;100834.44;;;11.56;86.84
75298;BME280;63896;45.990;18.688;2024-03-07T11:37:57;100835.13;;;12.33;86.32
75298;BME280;63896;45.990;18.688;2024-03-07T11:41:00;100826.13;;;12.59;82.27
75298;BME280;63896;45.990;18.688;2024-03-07T11:44:07;100822.19;;;13.36;74.50
75298;BME280;63896;45.990;18.688;2024-03-07T11:47:15;100825.72;;;13.48;71.81
75298;BME280;63896;45.990;18.688;2024-03-07T11:50:18;100824.38;;;13.21;70.99
75298;BME280;63896;45.990;18.688;2024-03-07T11:53:23;100827.00;;;13.82;67.45
75298;BME280;63896;45.990;18.688;2024-03-07T11:56:35;100824.09;;;13.83;66.72
75298;BME280;63896;45.990;18.688;2024-03-07T12:00:10;100817.97;;;13.47;69.10
75298;BME280;63896;45.990;18.688;2024-03-07T12:03:18;100816.03;;;14.31;64.73
75298;BME280;63896;45.990;18.688;2024-03-07T12:06:25;100823.09;;;13.96;64.56
75298;BME280;63896;45.990;18.688;2024-03-07T12:09:29;100823.53;;;13.45;66.10
75298;BME280;63896;45.990;18.688;2024-03-07T12:12:35;100818.81;;;13.04;69.52
75298;BME280;63896;45.990;18.688;2024-03-07T12:15:42;100822.94;;;12.19;68.94
75298;BME280;63896;45.990;18.688;2024-03-07T12:18:46;100812.81;;;12.59;71.60
75298;BME280;63896;45.990;18.688;2024-03-07T12:21:51;100817.88;;;12.92;72.12
75298;BME280;63896;45.990;18.688;2024-03-07T12:25:03;100811.41;;;13.79;66.89
75298;BME280;63896;45.990;18.688;2024-03-07T12:28:12;100808.50;;;14.28;63.62
75298;BME280;63896;45.990;18.688;2024-03-07T12:31:20;100810.31;;;14.16;61.10
75298;BME280;63896;45.990;18.688;2024-03-07T12:34:26;100808.09;;;14.43;61.54
75298;BME280;63896;45.990;18.688;2024-03-07T12:37:35;100806.59;;;14.17;63.76
75298;BME280;63896;45.990;18.688;2024-03-07T12:40:38;100811.34;;;14.45;61.61
75298;BME280;63896;45.990;18.688;2024-03-07T12:43:44;100812.34;;;14.32;60.41
75298;BME280;63896;45.990;18.688;2024-03-07T12:46:51;100813.06;;;13.80;61.98
75298;BME280;63896;45.990;18.688;2024-03-07T12:49:59;100814.78;;;13.20;65.13
75298;BME280;63896;45.990;18.688;2024-03-07T12:53:04;100808.81;;;13.24;64.44
75298;BME280;63896;45.990;18.688;2024-03-07T12:56:08;100814.41;;;12.92;67.24
75298;BME280;63896;45.990;18.688;2024-03-07T12:59:11;100815.50;;;11.90;67.92
75298;BME280;63896;45.990;18.688;2024-03-07T13:02:14;100817.63;;;12.19;68.11
75298;BME280;63896;45.990;18.688;2024-03-07T13:05:18;100811.63;;;12.55;68.49
75298;BME280;63896;45.990;18.688;2024-03-07T13:08:21;100823.25;;;12.61;68.96
75298;BME280;63896;45.990;18.688;2024-03-07T13:11:29;100813.69;;;13.03;67.24
75298;BME280;63896;45.990;18.688;2024-03-07T13:14:40;100821.69;;;12.78;64.03
75298;BME280;63896;45.990;18.688;2024-03-07T13:17:54;100818.97;;;12.84;67.68
75298;BME280;63896;45.990;18.688;2024-03-07T13:20:58;100814.84;;;12.01;73.21
75298;BME280;63896;45.990;18.688;2024-03-07T13:24:01;100824.41;;;11.64;74.29
75298;BME280;63896;45.990;18.688;2024-03-07T13:27:04;100822.56;;;11.71;78.32
75298;BME280;63896;45.990;18.688;2024-03-07T13:30:14;100829.66;;;10.87;82.31
75298;BME280;63896;45.990;18.688;2024-03-07T13:33:25;100828.47;;;11.67;79.65
75298;BME280;63896;45.990;18.688;2024-03-07T13:36:30;100830.44;;;11.20;79.12
75298;BME280;63896;45.990;18.688;2024-03-07T13:39:54;100831.16;;;11.60;78.96
75298;BME280;63896;45.990;18.688;2024-03-07T13:43:11;100839.63;;;11.31;87.20
75298;BME280;63896;45.990;18.688;2024-03-07T13:46:14;100837.00;;;11.05;84.99
75298;BME280;63896;45.990;18.688;2024-03-07T13:49:20;100834.19;;;10.73;99.25
75298;BME280;63896;45.990;18.688;2024-03-07T13:52:25;100838.25;;;10.69;95.30
75298;BME280;63896;45.990;18.688;2024-03-07T13:55:34;100850.47;;;10.44;98.32
75298;BME280;63896;45.990;18.688;2024-03-07T14:08:57;100853.81;;;10.05;100.00
75298;BME280;63896;45.990;18.688;2024-03-07T14:23:00;100857.66;;;9.55;100.00
75298;BME280;63896;45.990;18.688;2024-03-07T14:37:34;100867.72;;;9.32;100.00
75298;BME280;63896;45.990;18.688;2024-03-07T14:40:39;100861.44;;;9.39;100.00
75298;BME280;63896;45.990;18.688;2024-03-07T14:43:43;100868.78;;;9.37;100.00
75298;BME280;63896;45.990;18.688;2024-03-07T14:46:50;100869.16;;;9.34;100.00
75298;BME280;63896;45.990;18.688;2024-03-07T14:49:55;100870.72;;;9.22;100.00
75298;BME280;63896;45.990;18.688;2024-03-07T14:52:59;100872.69;;;9.14;100.00
75298;BME280;63896;45.990;18.688;2024-03-07T14:56:02;100866.91;;;9.03;100.00
75298;BME280;63896;45.990;18.688;2024-03-07T14:59:07;100868.66;;;8.96;100.00
75298;BME280;63896;45.990;18.688;2024-03-07T15:02:10;100868.81;;;8.88;100.00
75298;BME280;63896;45.990;18.688;2024-03-07T15:05:17;100868.47;;;8.70;100.00
75298;BME280;63896;45.990;18.688;2024-03-07T15:08:22;100867.47;;;8.71;100.00
75298;BME280;63896;45.990;18.688;2024-03-07T15:11:45;100879.28;;;8.75;100.00
75298;BME280;63896;45.990;18.688;2024-03-07T15:14:48;100871.78;;;8.79;100.00
75298;BME280;63896;45.990;18.688;2024-03-07T15:18:02;100873.31;;;8.67;100.00
75298;BME280;63896;45.990;18.688;2024-03-07T15:21:05;100875.00;;;8.74;100.00
75298;BME280;63896;45.990;18.688;2024-03-07T15:24:08;100877.16;;;8.64;100.00
75298;BME280;63896;45.990;18.688;2024-03-07T15:27:11;100870.19;;;8.56;100.00
75298;BME280;63896;45.990;18.688;2024-03-07T15:30:17;100869.16;;;8.57;100.00
75298;BME280;63896;45.990;18.688;2024-03-07T15:33:21;100874.38;;;8.51;100.00
75298;BME280;63896;45.990;18.688;2024-03-07T15:36:25;100884.47;;;8.41;100.00
75298;BME280;63896;45.990;18.688;2024-03-07T15:39:29;100882.31;;;8.51;100.00
75298;BME280;63896;45.990;18.688;2024-03-07T15:42:33;100889.38;;;8.44;100.00
75298;BME280;63896;45.990;18.688;2024-03-07T15:45:36;100894.16;;;8.34;100.00
75298;BME280;63896;45.990;18.688;2024-03-07T15:48:40;100887.59;;;8.15;100.00
75298;BME280;63896;45.990;18.688;2024-03-07T15:51:43;100900.25;;;8.20;100.00
75298;BME280;63896;45.990;18.688;2024-03-07T15:54:48;100899.53;;;8.11;100.00
75298;BME280;63896;45.990;18.688;2024-03-07T15:57:53;100902.44;;;8.16;100.00
75298;BME280;63896;45.990;18.688;2024-03-07T16:00:56;100904.66;;;7.98;100.00
75298;BME280;63896;45.990;18.688;2024-03-07T16:03:59;100909.13;;;7.97;100.00
75298;BME280;63896;45.990;18.688;2024-03-07T16:07:02;100911.97;;;7.81;100.00
75298;BME280;63896;45.990;18.688;2024-03-07T16:10:06;100911.06;;;7.74;100.00
75298;BME280;63896;45.990;18.688;2024-03-07T16:13:11;100911.25;;;7.87;100.00
75298;BME280;63896;45.990;18.688;2024-03-07T16:16:17;100915.34;;;7.75;100.00
75298;BME280;63896;45.990;18.688;2024-03-07T16:19:22;100911.16;;;7.81;100.00
75298;BME280;63896;45.990;18.688;2024-03-07T16:22:25;100923.19;;;7.83;100.00
75298;BME280;63896;45.990;18.688;2024-03-07T16:25:31;100927.56;;;7.76;100.00
75298;BME280;63896;45.990;18.688;2024-03-07T16:28:34;100928.53;;;7.46;100.00
75298;BME280;63896;45.990;18.688;2024-03-07T16:31:37;100927.53;;;7.47;100.00
75298;BME280;63896;45.990;18.688;2024-03-07T16:34:41;100931.22;;;7.23;100.00